sensor_id;sensor_type;location;lat;lon;timestamp;pressure;altitude;pressure_sealevel;temperature;humidity
63090;BME280;49174;43.198;27.824;2023-05-01T00:02:21;101514.19;;;9.02;94.33
63090;BME280;49174;43.198;27.824;2023-05-01T00:04:46;101512.03;;;8.97;93.68
63090;BME280;49174;43.198;27.824;2023-05-01T00:07:12;101510.16;;;8.89;94.07
63090;BME280;49174;43.198;27.824;2023-05-01T00:09:37;101519.56;;;8.93;94.55
63090;BME280;49174;43.198;27.824;2023-05-01T00:12:03;101522.44;;;8.92;93.54
63090;BME280;49174;43.198;27.824;2023-05-01T00:14:29;101521.41;;;8.93;94.22
63090;BME280;49174;43.198;27.824;2023-05-01T00:16:54;101525.63;;;8.87;93.81
63090;BME280;49174;43.198;27.824;2023-05-01T00:19:20;101517.53;;;8.87;93.26
63090;BME280;49174;43.198;27.824;2023-05-01T00:21:45;101522.44;;;8.84;93.99
63090;BME280;49174;43.198;27.824;2023-05-01T00:24:13;101516.00;;;8.77;93.82
63090;BME280;49174;43.198;27.824;2023-05-01T00:26:39;101522.75;;;8.81;95.30
63090;BME280;49174;43.198;27.824;2023-05-01T00:29:05;101523.94;;;8.78;93.31
63090;BME280;49174;43.198;27.824;2023-05-01T00:31:31;101522.22;;;8.69;93.11
63090;BME280;49174;43.198;27.824;2023-05-01T00:33:57;101520.19;;;8.63;91.81
63090;BME280;49174;43.198;27.824;2023-05-01T00:36:22;101523.69;;;8.55;92.15
63090;BME280;49174;43.198;27.824;2023-05-01T00:38:48;101528.75;;;8.50;91.83
63090;BME280;49174;43.198;27.824;2023-05-01T00:41:13;101532.94;;;8.44;91.33
63090;BME280;49174;43.198;27.824;2023-05-01T00:43:39;101523.50;;;8.40;91.90
63090;BME280;49174;43.198;27.824;2023-05-01T00:46:05;101532.25;;;8.42;91.95
63090;BME280;49174;43.198;27.824;2023-05-01T00:48:31;101535.44;;;8.46;91.63
63090;BME280;49174;43.198;27.824;2023-05-01T00:50:57;101549.91;;;8.45;91.54
63090;BME280;49174;43.198;27.824;2023-05-01T00:53:24;101540.47;;;8.41;91.53
63090;BME280;49174;43.198;27.824;2023-05-01T00:55:50;101547.69;;;8.40;91.33
63090;BME280;49174;43.198;27.824;2023-05-01T00:58:17;101546.97;;;8.38;92.28
63090;BME280;49174;43.198;27.824;2023-05-01T01:00:43;101547.88;;;8.39;92.83
63090;BME280;49174;43.198;27.824;2023-05-01T01:03:09;101548.53;;;8.41;93.09
63090;BME280;49174;43.198;27.824;2023-05-01T01:05:41;101548.75;;;8.47;92.26
63090;BME280;49174;43.198;27.824;2023-05-01T01:13:40;101559.69;;;8.54;93.27
63090;BME280;49174;43.198;27.824;2023-05-01T01:16:20;101554.50;;;8.53;95.59
63090;BME280;49174;43.198;27.824;2023-05-01T01:21:48;101551.13;;;8.59;98.58
63090;BME280;49174;43.198;27.824;2023-05-01T01:29:55;101549.50;;;8.90;100.00
63090;BME280;49174;43.198;27.824;2023-05-01T01:35:05;101546.81;;;8.99;100.00
63090;BME280;49174;43.198;27.824;2023-05-01T01:38:18;101552.91;;;9.09;99.59
63090;BME280;49174;43.198;27.824;2023-05-01T01:41:00;101556.78;;;9.14;97.43
63090;BME280;49174;43.198;27.824;2023-05-01T01:43:37;101562.16;;;9.14;97.25
63090;BME280;49174;43.198;27.824;2023-05-01T01:46:05;101556.78;;;9.14;97.11
63090;BME280;49174;43.198;27.824;2023-05-01T01:48:35;101550.22;;;9.17;96.57
63090;BME280;49174;43.198;27.824;2023-05-01T01:51:05;101559.28;;;9.16;96.82
63090;BME280;49174;43.198;27.824;2023-05-01T01:53:33;101556.94;;;9.21;96.41
63090;BME280;49174;43.198;27.824;2023-05-01T01:56:03;101556.78;;;9.23;96.40
63090;BME280;49174;43.198;27.824;2023-05-01T01:58:31;101550.88;;;9.27;95.80
63090;BME280;49174;43.198;27.824;2023-05-01T02:00:58;101557.63;;;9.31;95.44
63090;BME280;49174;43.198;27.824;2023-05-01T02:03:24;101566.03;;;9.36;94.77
63090;BME280;49174;43.198;27.824;2023-05-01T02:05:53;101564.00;;;9.38;95.38
63090;BME280;49174;43.198;27.824;2023-05-01T02:08:19;101570.41;;;9.46;95.47
63090;BME280;49174;43.198;27.824;2023-05-01T02:10:46;101568.53;;;9.54;94.56
63090;BME280;49174;43.198;27.824;2023-05-01T02:13:12;101568.69;;;9.61;95.00
63090;BME280;49174;43.198;27.824;2023-05-01T02:15:41;101574.94;;;9.61;94.58
63090;BME280;49174;43.198;27.824;2023-05-01T02:18:07;101581.84;;;9.72;93.50
63090;BME280;49174;43.198;27.824;2023-05-01T02:20:33;101578.63;;;9.69;93.33
63090;BME280;49174;43.198;27.824;2023-05-01T02:23:01;101578.97;;;9.74;93.28
63090;BME280;49174;43.198;27.824;2023-05-01T02:25:30;101581.84;;;9.72;93.58
63090;BME280;49174;43.198;27.824;2023-05-01T02:28:01;101581.84;;;9.72;92.57
63090;BME280;49174;43.198;27.824;2023-05-01T02:30:27;101588.22;;;9.79;91.63
63090;BME280;49174;43.198;27.824;2023-05-01T02:32:53;101584.19;;;9.83;92.37
63090;BME280;49174;43.198;27.824;2023-05-01T02:35:19;101585.00;;;9.84;91.61
63090;BME280;49174;43.198;27.824;2023-05-01T02:37:44;101590.22;;;9.85;92.17
63090;BME280;49174;43.198;27.824;2023-05-01T02:40:13;101585.84;;;9.93;92.68
63090;BME280;49174;43.198;27.824;2023-05-01T02:42:43;101595.09;;;9.98;92.26
63090;BME280;49174;43.198;27.824;2023-05-01T02:45:17;101593.56;;;10.04;92.27
63090;BME280;49174;43.198;27.824;2023-05-01T02:47:44;101609.06;;;10.02;92.83
63090;BME280;49174;43.198;27.824;2023-05-01T02:50:12;101602.00;;;10.01;92.07
63090;BME280;49174;43.198;27.824;2023-05-01T02:52:38;101605.03;;;10.06;93.01
63090;BME280;49174;43.198;27.824;2023-05-01T02:55:04;101605.31;;;10.11;92.69
63090;BME280;49174;43.198;27.824;2023-05-01T02:57:33;101605.16;;;10.13;91.73
63090;BME280;49174;43.198;27.824;2023-05-01T02:59:59;101603.97;;;10.15;92.31
63090;BME280;49174;43.198;27.824;2023-05-01T03:02:25;101614.41;;;10.18;91.83
63090;BME280;49174;43.198;27.824;2023-05-01T03:04:50;101612.19;;;10.22;91.83
63090;BME280;49174;43.198;27.824;2023-05-01T03:07:16;101622.84;;;10.32;91.66
63090;BME280;49174;43.198;27.824;2023-05-01T03:09:41;101617.78;;;10.28;92.07
63090;BME280;49174;43.198;27.824;2023-05-01T03:12:07;101622.47;;;10.26;92.28
63090;BME280;49174;43.198;27.824;2023-05-01T03:14:32;101623.50;;;10.34;92.17
63090;BME280;49174;43.198;27.824;2023-05-01T03:16:58;101622.84;;;10.32;92.60
63090;BME280;49174;43.198;27.824;2023-05-01T03:19:23;101627.03;;;10.34;93.32
63090;BME280;49174;43.198;27.824;2023-05-01T03:21:49;101627.56;;;10.29;93.88
63090;BME280;49174;43.198;27.824;2023-05-01T03:24:15;101631.41;;;10.35;94.57
63090;BME280;49174;43.198;27.824;2023-05-01T03:26:40;101625.69;;;10.30;94.61
63090;BME280;49174;43.198;27.824;2023-05-01T03:29:06;101633.97;;;10.28;95.41
63090;BME280;49174;43.198;27.824;2023-05-01T03:31:32;101636.69;;;10.28;96.83
63090;BME280;49174;43.198;27.824;2023-05-01T03:33:57;101638.19;;;10.31;96.75
63090;BME280;49174;43.198;27.824;2023-05-01T03:36:23;101642.22;;;10.35;96.96
63090;BME280;49174;43.198;27.824;2023-05-01T03:38:49;101636.66;;;10.37;96.79
63090;BME280;49174;43.198;27.824;2023-05-01T03:41:15;101646.56;;;10.44;96.24
63090;BME280;49174;43.198;27.824;2023-05-01T03:43:40;101657.03;;;10.47;96.04
63090;BME280;49174;43.198;27.824;2023-05-01T03:46:06;101655.13;;;10.56;95.04
63090;BME280;49174;43.198;27.824;2023-05-01T03:48:31;101671.59;;;10.69;95.30
63090;BME280;49174;43.198;27.824;2023-05-01T03:50:57;101673.63;;;10.76;94.66
63090;BME280;49174;43.198;27.824;2023-05-01T03:53:23;101667.16;;;10.85;95.51
63090;BME280;49174;43.198;27.824;2023-05-01T03:55:48;101673.22;;;10.87;94.95
63090;BME280;49174;43.198;27.824;2023-05-01T03:58:14;101681.59;;;10.92;94.92
63090;BME280;49174;43.198;27.824;2023-05-01T04:00:39;101683.59;;;11.06;94.89
63090;BME280;49174;43.198;27.824;2023-05-01T04:03:06;101677.63;;;11.11;94.57
63090;BME280;49174;43.198;27.824;2023-05-01T04:05:32;101683.34;;;11.16;94.08
63090;BME280;49174;43.198;27.824;2023-05-01T04:07:57;101683.19;;;11.17;93.34
63090;BME280;49174;43.198;27.824;2023-05-01T04:10:23;101685.53;;;11.21;92.99
63090;BME280;49174;43.198;27.824;2023-05-01T04:12:49;101690.56;;;11.24;92.64
63090;BME280;49174;43.198;27.824;2023-05-01T04:15:14;101690.69;;;11.30;92.68
63090;BME280;49174;43.198;27.824;2023-05-01T04:17:40;101688.81;;;11.31;91.62
63090;BME280;49174;43.198;27.824;2023-05-01T04:20:08;101689.84;;;11.30;91.02
63090;BME280;49174;43.198;27.824;2023-05-01T04:22:35;101689.22;;;11.19;92.66
63090;BME280;49174;43.198;27.824;2023-05-01T04:25:01;101704.44;;;11.21;92.98
63090;BME280;49174;43.198;27.824;2023-05-01T04:27:26;101702.25;;;11.16;90.64
63090;BME280;49174;43.198;27.824;2023-05-01T04:29:52;101692.81;;;11.20;90.73
63090;BME280;49174;43.198;27.824;2023-05-01T04:32:20;101699.88;;;11.21;90.75
63090;BME280;49174;43.198;27.824;2023-05-01T04:34:46;101695.78;;;11.25;90.56
63090;BME280;49174;43.198;27.824;2023-05-01T04:37:12;101701.19;;;11.25;89.81
63090;BME280;49174;43.198;27.824;2023-05-01T04:39:38;101703.88;;;11.25;90.00
63090;BME280;49174;43.198;27.824;2023-05-01T04:42:04;101714.56;;;11.18;88.38
63090;BME280;49174;43.198;27.824;2023-05-01T04:44:29;101714.41;;;11.20;89.27
63090;BME280;49174;43.198;27.824;2023-05-01T04:46:55;101717.59;;;11.24;88.03
63090;BME280;49174;43.198;27.824;2023-05-01T04:49:21;101719.25;;;11.25;87.48
63090;BME280;49174;43.198;27.824;2023-05-01T04:51:47;101718.44;;;11.24;88.81
63090;BME280;49174;43.198;27.824;2023-05-01T04:54:12;101717.91;;;11.29;89.36
63090;BME280;49174;43.198;27.824;2023-05-01T04:56:38;101710.28;;;11.32;90.15
63090;BME280;49174;43.198;27.824;2023-05-01T04:59:03;101723.75;;;11.40;89.31
63090;BME280;49174;43.198;27.824;2023-05-01T05:01:30;101718.09;;;11.50;89.49
63090;BME280;49174;43.198;27.824;2023-05-01T05:03:55;101723.16;;;11.53;87.76
63090;BME280;49174;43.198;27.824;2023-05-01T05:06:21;101723.38;;;11.67;88.49
63090;BME280;49174;43.198;27.824;2023-05-01T05:08:46;101724.72;;;11.71;87.14
63090;BME280;49174;43.198;27.824;2023-05-01T05:11:18;101733.41;;;11.81;86.24
63090;BME280;49174;43.198;27.824;2023-05-01T05:13:44;101731.34;;;11.91;86.83
63090;BME280;49174;43.198;27.824;2023-05-01T05:16:10;101746.41;;;12.08;85.37
63090;BME280;49174;43.198;27.824;2023-05-01T05:18:36;101735.03;;;12.13;84.44
63090;BME280;49174;43.198;27.824;2023-05-01T05:21:06;101735.16;;;12.20;82.69
63090;BME280;49174;43.198;27.824;2023-05-01T05:23:35;101736.78;;;12.29;82.97
63090;BME280;49174;43.198;27.824;2023-05-01T05:26:01;101739.56;;;12.36;82.54
63090;BME280;49174;43.198;27.824;2023-05-01T05:28:27;101739.19;;;12.39;79.23
63090;BME280;49174;43.198;27.824;2023-05-01T05:30:54;101746.50;;;12.53;79.35
63090;BME280;49174;43.198;27.824;2023-05-01T05:33:20;101743.22;;;12.72;80.08
63090;BME280;49174;43.198;27.824;2023-05-01T05:35:46;101744.38;;;12.93;80.49
63090;BME280;49174;43.198;27.824;2023-05-01T05:38:14;101758.94;;;13.07;77.97
63090;BME280;49174;43.198;27.824;2023-05-01T05:40:40;101755.16;;;13.23;76.48
63090;BME280;49174;43.198;27.824;2023-05-01T05:43:06;101751.22;;;13.25;73.59
63090;BME280;49174;43.198;27.824;2023-05-01T05:45:32;101755.19;;;13.37;72.95
63090;BME280;49174;43.198;27.824;2023-05-01T05:47:58;101759.22;;;13.48;73.10
63090;BME280;49174;43.198;27.824;2023-05-01T05:50:24;101754.06;;;13.53;70.54
63090;BME280;49174;43.198;27.824;2023-05-01T05:52:49;101756.88;;;13.60;71.05
63090;BME280;49174;43.198;27.824;2023-05-01T05:55:15;101751.97;;;13.70;68.95
63090;BME280;49174;43.198;27.824;2023-05-01T05:57:41;101755.09;;;13.89;67.86
63090;BME280;49174;43.198;27.824;2023-05-01T06:00:08;101762.13;;;14.04;65.75
63090;BME280;49174;43.198;27.824;2023-05-01T06:02:35;101760.50;;;14.10;64.27
63090;BME280;49174;43.198;27.824;2023-05-01T06:05:01;101767.72;;;14.24;62.59
63090;BME280;49174;43.198;27.824;2023-05-01T06:07:27;101758.47;;;14.40;62.52
63090;BME280;49174;43.198;27.824;2023-05-01T06:09:53;101765.88;;;14.53;61.68
63090;BME280;49174;43.198;27.824;2023-05-01T06:12:19;101767.84;;;14.66;65.06
63090;BME280;49174;43.198;27.824;2023-05-01T06:14:44;101767.72;;;14.81;67.27
63090;BME280;49174;43.198;27.824;2023-05-01T06:17:10;101765.75;;;14.96;67.72
63090;BME280;49174;43.198;27.824;2023-05-01T06:19:36;101768.75;;;15.14;64.32
63090;BME280;49174;43.198;27.824;2023-05-01T06:22:02;101765.50;;;15.32;65.91
63090;BME280;49174;43.198;27.824;2023-05-01T06:24:27;101769.94;;;15.53;64.48
63090;BME280;49174;43.198;27.824;2023-05-01T06:26:53;101774.03;;;15.77;60.43
63090;BME280;49174;43.198;27.824;2023-05-01T06:29:19;101773.22;;;15.97;60.68
63090;BME280;49174;43.198;27.824;2023-05-01T06:31:44;101773.22;;;16.17;59.90
63090;BME280;49174;43.198;27.824;2023-05-01T06:34:10;101783.47;;;16.35;56.61
63090;BME280;49174;43.198;27.824;2023-05-01T06:36:35;101782.00;;;16.45;58.03
63090;BME280;49174;43.198;27.824;2023-05-01T06:39:01;101781.78;;;16.67;56.60
63090;BME280;49174;43.198;27.824;2023-05-01T06:41:26;101789.53;;;16.90;52.24
63090;BME280;49174;43.198;27.824;2023-05-01T06:43:52;101781.72;;;17.13;50.78
63090;BME280;49174;43.198;27.824;2023-05-01T06:46:18;101787.28;;;17.38;51.90
63090;BME280;49174;43.198;27.824;2023-05-01T06:48:43;101791.81;;;17.58;51.80
63090;BME280;49174;43.198;27.824;2023-05-01T06:51:08;101788.97;;;17.78;51.97
63090;BME280;49174;43.198;27.824;2023-05-01T06:53:34;101797.31;;;17.90;53.92
63090;BME280;49174;43.198;27.824;2023-05-01T06:56:01;101796.78;;;18.06;53.09
63090;BME280;49174;43.198;27.824;2023-05-01T06:58:26;101797.69;;;18.25;48.06
63090;BME280;49174;43.198;27.824;2023-05-01T07:00:52;101803.09;;;18.31;48.65
63090;BME280;49174;43.198;27.824;2023-05-01T07:03:18;101807.03;;;18.61;47.81
63090;BME280;49174;43.198;27.824;2023-05-01T07:05:44;101809.63;;;18.81;45.93
63090;BME280;49174;43.198;27.824;2023-05-01T07:08:09;101806.00;;;19.05;42.88
63090;BME280;49174;43.198;27.824;2023-05-01T07:10:35;101816.31;;;19.22;43.66
63090;BME280;49174;43.198;27.824;2023-05-01T07:13:00;101811.22;;;19.43;42.74
63090;BME280;49174;43.198;27.824;2023-05-01T07:15:26;101812.94;;;19.75;44.51
63090;BME280;49174;43.198;27.824;2023-05-01T07:17:51;101812.72;;;20.06;42.24
63090;BME280;49174;43.198;27.824;2023-05-01T07:20:17;101822.41;;;20.33;42.15
63090;BME280;49174;43.198;27.824;2023-05-01T07:22:43;101827.75;;;20.39;43.26
63090;BME280;49174;43.198;27.824;2023-05-01T07:25:08;101823.84;;;20.35;44.26
63090;BME280;49174;43.198;27.824;2023-05-01T07:27:34;101818.84;;;20.44;48.00
63090;BME280;49174;43.198;27.824;2023-05-01T07:30:00;101823.44;;;20.73;46.74
63090;BME280;49174;43.198;27.824;2023-05-01T07:32:26;101829.84;;;21.03;45.33
63090;BME280;49174;43.198;27.824;2023-05-01T07:34:51;101827.22;;;21.08;43.71
63090;BME280;49174;43.198;27.824;2023-05-01T07:37:17;101837.59;;;21.17;46.32
63090;BME280;49174;43.198;27.824;2023-05-01T07:39:43;101830.91;;;21.37;41.73
63090;BME280;49174;43.198;27.824;2023-05-01T07:42:09;101825.97;;;21.51;39.58
63090;BME280;49174;43.198;27.824;2023-05-01T07:44:34;101836.41;;;21.37;36.64
63090;BME280;49174;43.198;27.824;2023-05-01T07:47:03;101838.63;;;21.52;37.19
63090;BME280;49174;43.198;27.824;2023-05-01T07:49:30;101845.94;;;21.75;39.22
63090;BME280;49174;43.198;27.824;2023-05-01T07:51:59;101844.47;;;22.13;39.23
63090;BME280;49174;43.198;27.824;2023-05-01T07:54:25;101848.50;;;22.39;36.24
63090;BME280;49174;43.198;27.824;2023-05-01T07:56:51;101847.78;;;22.43;35.19
63090;BME280;49174;43.198;27.824;2023-05-01T07:59:16;101845.09;;;22.65;34.65
63090;BME280;49174;43.198;27.824;2023-05-01T08:01:42;101851.22;;;22.89;32.18
63090;BME280;49174;43.198;27.824;2023-05-01T08:04:07;101855.09;;;23.05;31.09
63090;BME280;49174;43.198;27.824;2023-05-01T08:06:33;101864.78;;;23.30;32.58
63090;BME280;49174;43.198;27.824;2023-05-01T08:08:58;101861.84;;;23.58;30.65
63090;BME280;49174;43.198;27.824;2023-05-01T08:11:25;101866.59;;;23.85;29.62
63090;BME280;49174;43.198;27.824;2023-05-01T08:13:50;101863.50;;;23.81;29.18
63090;BME280;49174;43.198;27.824;2023-05-01T08:16:16;101867.09;;;23.82;29.35
63090;BME280;49174;43.198;27.824;2023-05-01T08:18:41;101870.31;;;23.52;29.12
63090;BME280;49174;43.198;27.824;2023-05-01T08:21:07;101871.72;;;23.76;27.98
63090;BME280;49174;43.198;27.824;2023-05-01T08:23:32;101863.63;;;23.92;27.90
63090;BME280;49174;43.198;27.824;2023-05-01T08:25:58;101866.06;;;23.22;27.70
63090;BME280;49174;43.198;27.824;2023-05-01T08:28:23;101866.53;;;22.97;29.43
63090;BME280;49174;43.198;27.824;2023-05-01T08:30:49;101863.31;;;23.44;29.66
63090;BME280;49174;43.198;27.824;2023-05-01T08:33:16;101867.09;;;23.38;27.20
63090;BME280;49174;43.198;27.824;2023-05-01T08:35:41;101864.28;;;23.33;28.83
63090;BME280;49174;43.198;27.824;2023-05-01T08:38:07;101867.78;;;23.50;27.08
63090;BME280;49174;43.198;27.824;2023-05-01T08:40:35;101867.34;;;23.58;28.05
63090;BME280;49174;43.198;27.824;2023-05-01T08:43:03;101868.94;;;23.76;27.14
63090;BME280;49174;43.198;27.824;2023-05-01T08:45:32;101867.19;;;23.70;26.67
63090;BME280;49174;43.198;27.824;2023-05-01T08:48:08;101861.53;;;24.04;29.96
63090;BME280;49174;43.198;27.824;2023-05-01T08:50:34;101855.19;;;23.54;29.10
63090;BME280;49174;43.198;27.824;2023-05-01T08:53:04;101862.34;;;23.99;29.24
63090;BME280;49174;43.198;27.824;2023-05-01T08:55:32;101865.44;;;24.35;27.74
63090;BME280;49174;43.198;27.824;2023-05-01T08:58:00;101871.53;;;24.69;28.47
63090;BME280;49174;43.198;27.824;2023-05-01T09:00:27;101863.78;;;24.66;25.81
63090;BME280;49174;43.198;27.824;2023-05-01T09:02:53;101868.63;;;24.49;28.14
63090;BME280;49174;43.198;27.824;2023-05-01T09:05:19;101868.59;;;24.44;27.76
63090;BME280;49174;43.198;27.824;2023-05-01T09:07:46;101873.91;;;24.88;26.03
63090;BME280;49174;43.198;27.824;2023-05-01T09:10:13;101871.06;;;25.20;26.16
63090;BME280;49174;43.198;27.824;2023-05-01T09:12:40;101875.13;;;25.60;28.37
63090;BME280;49174;43.198;27.824;2023-05-01T09:15:07;101874.91;;;25.82;27.06
63090;BME280;49174;43.198;27.824;2023-05-01T09:17:32;101875.78;;;25.88;26.76
63090;BME280;49174;43.198;27.824;2023-05-01T09:20:01;101871.69;;;26.05;27.24
63090;BME280;49174;43.198;27.824;2023-05-01T09:22:29;101875.28;;;26.21;26.87
63090;BME280;49174;43.198;27.824;2023-05-01T09:24:55;101876.16;;;26.32;26.77
63090;BME280;49174;43.198;27.824;2023-05-01T09:27:21;101868.97;;;26.41;26.02
63090;BME280;49174;43.198;27.824;2023-05-01T09:29:47;101874.25;;;25.44;24.10
63090;BME280;49174;43.198;27.824;2023-05-01T09:32:18;101874.84;;;24.39;26.44
63090;BME280;49174;43.198;27.824;2023-05-01T09:34:47;101866.06;;;24.15;26.33
63090;BME280;49174;43.198;27.824;2023-05-01T09:37:34;101875.88;;;23.79;25.83
63090;BME280;49174;43.198;27.824;2023-05-01T09:40:09;101877.91;;;23.67;27.88
63090;BME280;49174;43.198;27.824;2023-05-01T09:42:49;101872.56;;;24.04;27.20
63090;BME280;49174;43.198;27.824;2023-05-01T09:45:16;101878.41;;;24.67;28.16
63090;BME280;49174;43.198;27.824;2023-05-01T09:47:44;101875.63;;;24.62;26.89
63090;BME280;49174;43.198;27.824;2023-05-01T09:50:11;101874.31;;;25.12;28.20
63090;BME280;49174;43.198;27.824;2023-05-01T09:52:52;101882.50;;;24.96;25.25
63090;BME280;49174;43.198;27.824;2023-05-01T09:55:18;101868.75;;;24.64;25.93
63090;BME280;49174;43.198;27.824;2023-05-01T09:57:45;101867.81;;;24.53;25.73
63090;BME280;49174;43.198;27.824;2023-05-01T10:00:12;101875.72;;;24.72;26.50
63090;BME280;49174;43.198;27.824;2023-05-01T10:02:44;101866.59;;;24.77;26.29
63090;BME280;49174;43.198;27.824;2023-05-01T10:05:10;101871.44;;;24.91;26.89
63090;BME280;49174;43.198;27.824;2023-05-01T10:07:37;101871.91;;;25.21;27.57
63090;BME280;49174;43.198;27.824;2023-05-01T10:12:41;101866.47;;;24.29;25.29
63090;BME280;49174;43.198;27.824;2023-05-01T10:15:08;101867.91;;;24.64;26.85
63090;BME280;49174;43.198;27.824;2023-05-01T10:17:34;101864.38;;;25.11;27.72
63090;BME280;49174;43.198;27.824;2023-05-01T10:20:00;101875.63;;;24.99;25.22
63090;BME280;49174;43.198;27.824;2023-05-01T10:22:26;101871.84;;;24.73;27.20
63090;BME280;49174;43.198;27.824;2023-05-01T10:24:51;101878.38;;;24.35;28.55
63090;BME280;49174;43.198;27.824;2023-05-01T10:27:18;101876.94;;;24.27;28.77
63090;BME280;49174;43.198;27.824;2023-05-01T10:29:45;101882.38;;;24.81;28.13
63090;BME280;49174;43.198;27.824;2023-05-01T10:32:12;101877.06;;;25.12;26.20
63090;BME280;49174;43.198;27.824;2023-05-01T10:34:42;101874.34;;;24.74;26.62
63090;BME280;49174;43.198;27.824;2023-05-01T10:37:19;101883.41;;;24.43;27.09
63090;BME280;49174;43.198;27.824;2023-05-01T10:39:46;101881.66;;;24.31;27.05
63090;BME280;49174;43.198;27.824;2023-05-01T10:42:11;101874.84;;;24.66;29.90
63090;BME280;49174;43.198;27.824;2023-05-01T10:44:41;101879.75;;;25.02;26.73
63090;BME280;49174;43.198;27.824;2023-05-01T10:50:06;101879.34;;;25.20;28.18
63090;BME280;49174;43.198;27.824;2023-05-01T10:55:48;101871.16;;;25.35;23.98
63090;BME280;49174;43.198;27.824;2023-05-01T11:01:28;101863.94;;;25.97;25.46
63090;BME280;49174;43.198;27.824;2023-05-01T11:03:55;101868.94;;;26.11;25.55
63090;BME280;49174;43.198;27.824;2023-05-01T11:06:21;101874.91;;;25.77;26.05
63090;BME280;49174;43.198;27.824;2023-05-01T11:08:48;101875.94;;;23.84;26.73
63090;BME280;49174;43.198;27.824;2023-05-01T11:21:45;101877.63;;;23.85;28.05
63090;BME280;49174;43.198;27.824;2023-05-01T11:24:11;101876.59;;;23.91;29.17
63090;BME280;49174;43.198;27.824;2023-05-01T11:26:38;101884.44;;;24.04;29.21
63090;BME280;49174;43.198;27.824;2023-05-01T11:29:05;101881.53;;;24.16;28.01
63090;BME280;49174;43.198;27.824;2023-05-01T11:31:31;101879.06;;;24.20;29.26
63090;BME280;49174;43.198;27.824;2023-05-01T11:45:37;101874.59;;;24.14;28.83
63090;BME280;49174;43.198;27.824;2023-05-01T11:48:03;101870.28;;;24.87;29.20
63090;BME280;49174;43.198;27.824;2023-05-01T11:50:35;101872.09;;;24.12;27.29
63090;BME280;49174;43.198;27.824;2023-05-01T11:53:01;101879.25;;;23.42;29.87
63090;BME280;49174;43.198;27.824;2023-05-01T11:55:31;101880.34;;;22.85;32.84
63090;BME280;49174;43.198;27.824;2023-05-01T11:57:57;101877.09;;;22.71;32.37
63090;BME280;49174;43.198;27.824;2023-05-01T12:00:29;101875.09;;;22.67;32.47
63090;BME280;49174;43.198;27.824;2023-05-01T12:02:57;101873.94;;;22.17;32.10
63090;BME280;49174;43.198;27.824;2023-05-01T12:05:23;101870.59;;;21.98;33.43
63090;BME280;49174;43.198;27.824;2023-05-01T12:07:49;101868.34;;;22.24;32.19
63090;BME280;49174;43.198;27.824;2023-05-01T12:10:15;101866.53;;;22.63;32.04
63090;BME280;49174;43.198;27.824;2023-05-01T12:12:41;101858.31;;;23.19;30.27
63090;BME280;49174;43.198;27.824;2023-05-01T12:15:07;101853.25;;;23.33;28.33
63090;BME280;49174;43.198;27.824;2023-05-01T12:17:33;101859.78;;;23.71;29.72
63090;BME280;49174;43.198;27.824;2023-05-01T12:19:58;101860.75;;;23.81;29.15
63090;BME280;49174;43.198;27.824;2023-05-01T12:22:24;101861.38;;;23.45;30.80
63090;BME280;49174;43.198;27.824;2023-05-01T12:24:50;101861.66;;;23.21;30.53
63090;BME280;49174;43.198;27.824;2023-05-01T12:27:19;101860.78;;;23.20;31.27
63090;BME280;49174;43.198;27.824;2023-05-01T12:29:45;101865.22;;;23.22;32.36
63090;BME280;49174;43.198;27.824;2023-05-01T12:32:15;101861.69;;;23.48;31.15
63090;BME280;49174;43.198;27.824;2023-05-01T12:34:41;101863.81;;;23.19;32.22
63090;BME280;49174;43.198;27.824;2023-05-01T12:37:09;101872.94;;;23.63;30.29
63090;BME280;49174;43.198;27.824;2023-05-01T12:39:39;101887.03;;;23.89;30.02
63090;BME280;49174;43.198;27.824;2023-05-01T12:42:15;101892.41;;;23.57;31.21
63090;BME280;49174;43.198;27.824;2023-05-01T12:44:42;101888.19;;;23.10;34.92
63090;BME280;49174;43.198;27.824;2023-05-01T12:47:08;101891.38;;;22.68;36.39
63090;BME280;49174;43.198;27.824;2023-05-01T12:49:36;101893.50;;;22.33;37.75
63090;BME280;49174;43.198;27.824;2023-05-01T12:52:03;101892.97;;;22.19;38.16
63090;BME280;49174;43.198;27.824;2023-05-01T12:54:32;101894.00;;;22.01;38.44
63090;BME280;49174;43.198;27.824;2023-05-01T12:57:14;101891.47;;;21.71;39.29
63090;BME280;49174;43.198;27.824;2023-05-01T12:59:43;101889.97;;;21.16;40.55
63090;BME280;49174;43.198;27.824;2023-05-01T13:02:10;101896.19;;;20.76;38.69
63090;BME280;49174;43.198;27.824;2023-05-01T13:04:37;101900.59;;;21.12;43.75
63090;BME280;49174;43.198;27.824;2023-05-01T13:07:14;101905.06;;;21.77;44.17
63090;BME280;49174;43.198;27.824;2023-05-01T13:09:50;101896.81;;;22.18;41.64
63090;BME280;49174;43.198;27.824;2023-05-01T13:12:16;101909.09;;;22.15;41.24
63090;BME280;49174;43.198;27.824;2023-05-01T13:14:42;101902.38;;;22.51;40.25
63090;BME280;49174;43.198;27.824;2023-05-01T13:17:09;101904.84;;;22.36;39.19
63090;BME280;49174;43.198;27.824;2023-05-01T13:19:36;101901.25;;;22.07;36.55
63090;BME280;49174;43.198;27.824;2023-05-01T13:22:02;101909.59;;;22.12;37.07
63090;BME280;49174;43.198;27.824;2023-05-01T13:24:38;101913.13;;;21.96;39.44
63090;BME280;49174;43.198;27.824;2023-05-01T13:27:04;101914.13;;;22.18;40.46
63090;BME280;49174;43.198;27.824;2023-05-01T13:29:31;101912.91;;;21.85;40.97
63090;BME280;49174;43.198;27.824;2023-05-01T13:31:57;101913.72;;;21.46;41.49
63090;BME280;49174;43.198;27.824;2023-05-01T13:34:30;101914.56;;;21.46;44.63